sensor_id;sensor_type;location;lat;lon;timestamp;P1;durP1;ratioP1;P2;durP2;ratioP2
12296;SDS011;6211;49.124;9.152;2022-10-26T00:00:43;27.52;;;25.88;;
12296;SDS011;6211;49.124;9.152;2022-10-26T00:03:11;52.10;;;49.17;;
12296;SDS011;6211;49.124;9.152;2022-10-26T00:05:38;31.65;;;29.60;;
12296;SDS011;6211;49.124;9.152;2022-10-26T00:08:06;48.80;;;46.05;;
12296;SDS011;6211;49.124;9.152;2022-10-26T00:10:34;42.88;;;40.10;;
12296;SDS011;6211;49.124;9.152;2022-10-26T00:13:01;36.20;;;34.38;;
12296;SDS011;6211;49.124;9.152;2022-10-26T00:15:29;19.90;;;18.60;;
12296;SDS011;6211;49.124;9.152;2022-10-26T00:17:56;31.95;;;30.00;;
12296;SDS011;6211;49.124;9.152;2022-10-26T00:20:23;36.17;;;34.08;;
12296;SDS011;6211;49.124;9.152;2022-10-26T00:22:51;35.60;;;33.65;;
12296;SDS011;6211;49.124;9.152;2022-10-26T00:25:19;17.35;;;16.10;;
12296;SDS011;6211;49.124;9.152;2022-10-26T00:27:46;36.67;;;34.53;;
12296;SDS011;6211;49.124;9.152;2022-10-26T00:30:13;46.95;;;44.42;;
12296;SDS011;6211;49.124;9.152;2022-10-26T00:32:40;36.85;;;34.38;;
12296;SDS011;6211;49.124;9.152;2022-10-26T00:35:07;41.72;;;39.30;;
12296;SDS011;6211;49.124;9.152;2022-10-26T00:37:35;51.40;;;48.72;;
12296;SDS011;6211;49.124;9.152;2022-10-26T00:40:02;39.75;;;37.35;;
12296;SDS011;6211;49.124;9.152;2022-10-26T00:42:30;35.13;;;32.70;;
12296;SDS011;6211;49.124;9.152;2022-10-26T00:44:58;33.80;;;31.75;;
12296;SDS011;6211;49.124;9.152;2022-10-26T00:47:28;28.80;;;26.73;;
12296;SDS011;6211;49.124;9.152;2022-10-26T00:49:57;39.80;;;37.53;;
12296;SDS011;6211;49.124;9.152;2022-10-26T00:52:26;45.35;;;42.50;;
12296;SDS011;6211;49.124;9.152;2022-10-26T00:54:53;47.72;;;44.97;;
12296;SDS011;6211;49.124;9.152;2022-10-26T00:57:20;39.00;;;36.63;;
12296;SDS011;6211;49.124;9.152;2022-10-26T00:59:49;65.53;;;61.58;;
12296;SDS011;6211;49.124;9.152;2022-10-26T01:02:17;44.55;;;41.53;;
12296;SDS011;6211;49.124;9.152;2022-10-26T01:04:44;37.78;;;35.78;;
12296;SDS011;6211;49.124;9.152;2022-10-26T01:07:11;32.83;;;30.83;;
12296;SDS011;6211;49.124;9.152;2022-10-26T01:09:39;30.25;;;28.30;;
12296;SDS011;6211;49.124;9.152;2022-10-26T01:12:06;70.70;;;66.65;;
12296;SDS011;6211;49.124;9.152;2022-10-26T01:14:33;53.13;;;49.70;;
12296;SDS011;6211;49.124;9.152;2022-10-26T01:17:04;38.72;;;36.60;;
12296;SDS011;6211;49.124;9.152;2022-10-26T01:22:17;58.20;;;55.00;;
12296;SDS011;6211;49.124;9.152;2022-10-26T01:24:50;54.67;;;51.67;;
12296;SDS011;6211;49.124;9.152;2022-10-26T01:27:26;34.53;;;32.22;;
12296;SDS011;6211;49.124;9.152;2022-10-26T01:32:43;40.97;;;38.83;;
12296;SDS011;6211;49.124;9.152;2022-10-26T01:35:12;49.30;;;46.35;;
12296;SDS011;6211;49.124;9.152;2022-10-26T01:37:41;33.47;;;31.52;;
12296;SDS011;6211;49.124;9.152;2022-10-26T01:40:13;35.15;;;33.13;;
12296;SDS011;6211;49.124;9.152;2022-10-26T01:42:43;45.20;;;42.92;;
12296;SDS011;6211;49.124;9.152;2022-10-26T01:45:13;39.50;;;36.97;;
12296;SDS011;6211;49.124;9.152;2022-10-26T01:47:40;21.67;;;20.27;;
12296;SDS011;6211;49.124;9.152;2022-10-26T01:50:09;48.20;;;45.33;;
12296;SDS011;6211;49.124;9.152;2022-10-26T01:52:37;40.47;;;37.78;;
12296;SDS011;6211;49.124;9.152;2022-10-26T01:55:05;35.42;;;33.20;;
12296;SDS011;6211;49.124;9.152;2022-10-26T01:57:33;41.75;;;39.30;;
12296;SDS011;6211;49.124;9.152;2022-10-26T02:00:03;41.38;;;38.90;;
12296;SDS011;6211;49.124;9.152;2022-10-26T02:05:34;21.70;;;20.27;;
12296;SDS011;6211;49.124;9.152;2022-10-26T02:08:05;18.95;;;17.83;;
12296;SDS011;6211;49.124;9.152;2022-10-26T02:10:38;43.83;;;41.30;;
12296;SDS011;6211;49.124;9.152;2022-10-26T02:13:09;41.25;;;38.97;;
12296;SDS011;6211;49.124;9.152;2022-10-26T02:15:40;28.52;;;26.73;;
12296;SDS011;6211;49.124;9.152;2022-10-26T02:18:12;23.35;;;21.98;;
12296;SDS011;6211;49.124;9.152;2022-10-26T02:20:43;21.73;;;20.48;;
12296;SDS011;6211;49.124;9.152;2022-10-26T02:23:12;42.30;;;39.03;;
12296;SDS011;6211;49.124;9.152;2022-10-26T02:25:43;45.45;;;42.85;;
12296;SDS011;6211;49.124;9.152;2022-10-26T02:28:11;23.30;;;22.02;;
12296;SDS011;6211;49.124;9.152;2022-10-26T02:30:39;31.13;;;29.38;;
12296;SDS011;6211;49.124;9.152;2022-10-26T02:33:08;37.35;;;35.15;;
12296;SDS011;6211;49.124;9.152;2022-10-26T02:35:36;41.60;;;38.90;;
12296;SDS011;6211;49.124;9.152;2022-10-26T02:38:06;33.95;;;31.73;;
12296;SDS011;6211;49.124;9.152;2022-10-26T02:40:34;27.98;;;26.50;;
12296;SDS011;6211;49.124;9.152;2022-10-26T02:43:03;42.05;;;39.45;;
12296;SDS011;6211;49.124;9.152;2022-10-26T02:45:32;32.40;;;30.65;;
12296;SDS011;6211;49.124;9.152;2022-10-26T02:48:00;28.13;;;26.13;;
12296;SDS011;6211;49.124;9.152;2022-10-26T02:50:28;19.15;;;17.88;;
12296;SDS011;6211;49.124;9.152;2022-10-26T02:53:00;28.77;;;26.92;;
12296;SDS011;6211;49.124;9.152;2022-10-26T02:55:31;32.53;;;30.42;;
12296;SDS011;6211;49.124;9.152;2022-10-26T02:58:00;28.05;;;26.27;;
12296;SDS011;6211;49.124;9.152;2022-10-26T03:00:28;28.98;;;27.15;;
12296;SDS011;6211;49.124;9.152;2022-10-26T03:02:57;39.25;;;36.95;;
12296;SDS011;6211;49.124;9.152;2022-10-26T03:05:27;22.10;;;20.70;;
12296;SDS011;6211;49.124;9.152;2022-10-26T03:07:56;23.15;;;21.52;;
12296;SDS011;6211;49.124;9.152;2022-10-26T03:10:24;43.35;;;41.17;;
12296;SDS011;6211;49.124;9.152;2022-10-26T03:12:52;47.75;;;44.95;;
12296;SDS011;6211;49.124;9.152;2022-10-26T03:15:20;53.78;;;50.90;;
12296;SDS011;6211;49.124;9.152;2022-10-26T03:17:47;30.55;;;28.60;;
12296;SDS011;6211;49.124;9.152;2022-10-26T03:20:14;31.25;;;29.67;;
12296;SDS011;6211;49.124;9.152;2022-10-26T03:22:41;35.50;;;33.53;;
12296;SDS011;6211;49.124;9.152;2022-10-26T03:25:08;27.35;;;25.77;;
12296;SDS011;6211;49.124;9.152;2022-10-26T03:27:35;43.55;;;40.85;;
12296;SDS011;6211;49.124;9.152;2022-10-26T03:30:05;71.65;;;67.55;;
12296;SDS011;6211;49.124;9.152;2022-10-26T03:32:32;60.72;;;57.13;;
12296;SDS011;6211;49.124;9.152;2022-10-26T03:34:59;35.17;;;32.92;;
12296;SDS011;6211;49.124;9.152;2022-10-26T03:37:26;43.75;;;40.72;;
12296;SDS011;6211;49.124;9.152;2022-10-26T03:39:53;33.22;;;31.45;;
12296;SDS011;6211;49.124;9.152;2022-10-26T03:42:20;47.28;;;44.85;;
12296;SDS011;6211;49.124;9.152;2022-10-26T03:44:47;27.88;;;25.77;;
12296;SDS011;6211;49.124;9.152;2022-10-26T03:47:17;47.35;;;44.85;;
12296;SDS011;6211;49.124;9.152;2022-10-26T03:49:44;17.13;;;15.95;;
12296;SDS011;6211;49.124;9.152;2022-10-26T03:52:11;34.72;;;32.60;;
12296;SDS011;6211;49.124;9.152;2022-10-26T03:54:38;42.28;;;39.85;;
12296;SDS011;6211;49.124;9.152;2022-10-26T03:57:05;43.50;;;40.85;;
12296;SDS011;6211;49.124;9.152;2022-10-26T03:59:32;43.25;;;40.88;;
12296;SDS011;6211;49.124;9.152;2022-10-26T04:01:59;36.13;;;34.25;;
12296;SDS011;6211;49.124;9.152;2022-10-26T04:04:28;47.08;;;44.47;;
12296;SDS011;6211;49.124;9.152;2022-10-26T04:06:55;74.20;;;70.38;;
12296;SDS011;6211;49.124;9.152;2022-10-26T04:09:22;46.70;;;44.08;;
12296;SDS011;6211;49.124;9.152;2022-10-26T04:11:49;50.35;;;47.78;;
12296;SDS011;6211;49.124;9.152;2022-10-26T04:14:16;62.38;;;59.15;;
12296;SDS011;6211;49.124;9.152;2022-10-26T04:16:43;47.42;;;44.72;;
12296;SDS011;6211;49.124;9.152;2022-10-26T04:19:11;41.67;;;39.08;;
12296;SDS011;6211;49.124;9.152;2022-10-26T04:21:39;53.28;;;50.28;;
12296;SDS011;6211;49.124;9.152;2022-10-26T04:24:06;28.80;;;27.20;;
12296;SDS011;6211;49.124;9.152;2022-10-26T04:26:33;44.15;;;41.42;;
12296;SDS011;6211;49.124;9.152;2022-10-26T04:29:00;45.20;;;42.58;;
12296;SDS011;6211;49.124;9.152;2022-10-26T04:31:30;42.65;;;39.63;;
12296;SDS011;6211;49.124;9.152;2022-10-26T04:33:57;57.55;;;54.22;;
12296;SDS011;6211;49.124;9.152;2022-10-26T04:36:24;34.83;;;32.60;;
12296;SDS011;6211;49.124;9.152;2022-10-26T04:38:53;41.70;;;39.20;;
12296;SDS011;6211;49.124;9.152;2022-10-26T04:41:20;42.17;;;39.67;;
12296;SDS011;6211;49.124;9.152;2022-10-26T04:43:47;63.95;;;60.58;;
12296;SDS011;6211;49.124;9.152;2022-10-26T04:46:14;20.67;;;19.20;;
12296;SDS011;6211;49.124;9.152;2022-10-26T04:48:41;31.30;;;29.50;;
12296;SDS011;6211;49.124;9.152;2022-10-26T04:51:09;37.17;;;34.67;;
12296;SDS011;6211;49.124;9.152;2022-10-26T04:53:36;28.55;;;26.73;;
12296;SDS011;6211;49.124;9.152;2022-10-26T04:56:04;75.32;;;71.43;;
12296;SDS011;6211;49.124;9.152;2022-10-26T04:58:32;48.58;;;45.97;;
12296;SDS011;6211;49.124;9.152;2022-10-26T05:00:59;44.28;;;42.17;;
12296;SDS011;6211;49.124;9.152;2022-10-26T05:03:26;41.75;;;39.58;;
12296;SDS011;6211;49.124;9.152;2022-10-26T05:05:56;30.15;;;28.50;;
12296;SDS011;6211;49.124;9.152;2022-10-26T05:08:23;39.25;;;36.85;;
12296;SDS011;6211;49.124;9.152;2022-10-26T05:10:50;49.15;;;45.88;;
12296;SDS011;6211;49.124;9.152;2022-10-26T05:13:20;62.00;;;59.00;;
12296;SDS011;6211;49.124;9.152;2022-10-26T05:15:47;51.08;;;48.15;;
12296;SDS011;6211;49.124;9.152;2022-10-26T05:18:14;35.88;;;33.97;;
12296;SDS011;6211;49.124;9.152;2022-10-26T05:20:41;33.88;;;31.98;;
12296;SDS011;6211;49.124;9.152;2022-10-26T05:23:09;22.05;;;20.35;;
12296;SDS011;6211;49.124;9.152;2022-10-26T05:25:37;53.80;;;50.90;;
12296;SDS011;6211;49.124;9.152;2022-10-26T05:28:05;36.35;;;34.53;;
12296;SDS011;6211;49.124;9.152;2022-10-26T05:30:34;49.25;;;46.45;;
12296;SDS011;6211;49.124;9.152;2022-10-26T05:33:01;67.43;;;63.65;;
12296;SDS011;6211;49.124;9.152;2022-10-26T05:35:29;46.10;;;43.78;;
12296;SDS011;6211;49.124;9.152;2022-10-26T05:37:56;33.63;;;31.52;;
12296;SDS011;6211;49.124;9.152;2022-10-26T05:40:24;62.40;;;59.03;;
12296;SDS011;6211;49.124;9.152;2022-10-26T05:42:51;48.40;;;45.78;;
12296;SDS011;6211;49.124;9.152;2022-10-26T05:45:18;49.13;;;46.42;;
12296;SDS011;6211;49.124;9.152;2022-10-26T05:47:47;25.40;;;23.90;;
12296;SDS011;6211;49.124;9.152;2022-10-26T05:50:14;84.18;;;79.90;;
12296;SDS011;6211;49.124;9.152;2022-10-26T05:52:41;27.73;;;26.23;;
12296;SDS011;6211;49.124;9.152;2022-10-26T05:55:10;37.40;;;35.55;;
12296;SDS011;6211;49.124;9.152;2022-10-26T05:57:37;52.47;;;49.78;;
12296;SDS011;6211;49.124;9.152;2022-10-26T06:00:06;32.15;;;30.23;;
12296;SDS011;6211;49.124;9.152;2022-10-26T06:02:35;44.15;;;41.47;;
12296;SDS011;6211;49.124;9.152;2022-10-26T06:05:06;39.55;;;37.22;;
12296;SDS011;6211;49.124;9.152;2022-10-26T06:07:35;32.40;;;30.52;;
12296;SDS011;6211;49.124;9.152;2022-10-26T06:10:03;23.50;;;21.83;;
12296;SDS011;6211;49.124;9.152;2022-10-26T06:12:30;36.60;;;34.10;;
12296;SDS011;6211;49.124;9.152;2022-10-26T06:14:58;48.80;;;46.25;;
12296;SDS011;6211;49.124;9.152;2022-10-26T06:17:29;27.00;;;24.77;;
12296;SDS011;6211;49.124;9.152;2022-10-26T06:20:02;28.85;;;27.35;;
12296;SDS011;6211;49.124;9.152;2022-10-26T06:22:40;49.42;;;46.63;;
12296;SDS011;6211;49.124;9.152;2022-10-26T06:25:12;35.00;;;33.00;;
12296;SDS011;6211;49.124;9.152;2022-10-26T06:27:42;34.25;;;32.58;;
12296;SDS011;6211;49.124;9.152;2022-10-26T06:30:12;36.67;;;34.63;;
12296;SDS011;6211;49.124;9.152;2022-10-26T06:32:39;26.40;;;24.58;;
12296;SDS011;6211;49.124;9.152;2022-10-26T06:35:17;28.85;;;27.35;;
12296;SDS011;6211;49.124;9.152;2022-10-26T06:37:46;48.80;;;46.05;;
12296;SDS011;6211;49.124;9.152;2022-10-26T06:40:15;34.83;;;32.97;;
12296;SDS011;6211;49.124;9.152;2022-10-26T06:42:43;24.50;;;23.23;;
12296;SDS011;6211;49.124;9.152;2022-10-26T06:45:10;80.03;;;75.90;;
12296;SDS011;6211;49.124;9.152;2022-10-26T06:47:39;69.80;;;66.25;;
12296;SDS011;6211;49.124;9.152;2022-10-26T06:50:11;60.75;;;57.58;;
12296;SDS011;6211;49.124;9.152;2022-10-26T06:52:41;45.85;;;43.30;;
12296;SDS011;6211;49.124;9.152;2022-10-26T06:55:13;76.75;;;72.55;;
12296;SDS011;6211;49.124;9.152;2022-10-26T06:57:41;69.53;;;65.72;;
12296;SDS011;6211;49.124;9.152;2022-10-26T07:00:13;75.95;;;71.60;;
12296;SDS011;6211;49.124;9.152;2022-10-26T07:02:41;84.85;;;80.78;;
12296;SDS011;6211;49.124;9.152;2022-10-26T07:05:08;81.32;;;77.10;;
12296;SDS011;6211;49.124;9.152;2022-10-26T07:07:38;46.38;;;43.75;;
12296;SDS011;6211;49.124;9.152;2022-10-26T07:10:07;102.30;;;96.70;;
12296;SDS011;6211;49.124;9.152;2022-10-26T07:12:36;123.95;;;116.93;;
12296;SDS011;6211;49.124;9.152;2022-10-26T07:15:03;130.60;;;124.07;;
12296;SDS011;6211;49.124;9.152;2022-10-26T07:17:40;99.20;;;93.38;;
12296;SDS011;6211;49.124;9.152;2022-10-26T07:20:08;125.47;;;118.05;;
12296;SDS011;6211;49.124;9.152;2022-10-26T07:22:35;78.68;;;74.47;;
12296;SDS011;6211;49.124;9.152;2022-10-26T07:25:02;110.28;;;104.45;;
12296;SDS011;6211;49.124;9.152;2022-10-26T07:27:30;129.13;;;122.72;;
12296;SDS011;6211;49.124;9.152;2022-10-26T07:29:59;158.93;;;150.27;;
12296;SDS011;6211;49.124;9.152;2022-10-26T07:32:26;76.93;;;72.45;;
12296;SDS011;6211;49.124;9.152;2022-10-26T07:34:53;92.55;;;87.25;;
12296;SDS011;6211;49.124;9.152;2022-10-26T07:37:20;89.68;;;84.85;;
12296;SDS011;6211;49.124;9.152;2022-10-26T07:39:47;98.10;;;92.50;;
12296;SDS011;6211;49.124;9.152;2022-10-26T07:42:15;103.75;;;97.65;;
12296;SDS011;6211;49.124;9.152;2022-10-26T07:44:42;129.15;;;121.80;;
12296;SDS011;6211;49.124;9.152;2022-10-26T07:47:10;126.95;;;119.90;;
12296;SDS011;6211;49.124;9.152;2022-10-26T07:49:37;168.70;;;159.88;;
12296;SDS011;6211;49.124;9.152;2022-10-26T07:52:04;197.70;;;186.65;;
12296;SDS011;6211;49.124;9.152;2022-10-26T07:54:31;135.15;;;126.93;;
12296;SDS011;6211;49.124;9.152;2022-10-26T07:56:59;116.57;;;110.05;;
12296;SDS011;6211;49.124;9.152;2022-10-26T07:59:26;147.43;;;139.50;;
12296;SDS011;6211;49.124;9.152;2022-10-26T08:01:54;91.45;;;86.40;;
12296;SDS011;6211;49.124;9.152;2022-10-26T08:04:22;110.47;;;103.47;;
12296;SDS011;6211;49.124;9.152;2022-10-26T08:06:49;154.52;;;145.25;;
12296;SDS011;6211;49.124;9.152;2022-10-26T08:09:17;129.00;;;121.45;;
12296;SDS011;6211;49.124;9.152;2022-10-26T08:11:44;100.72;;;94.72;;
12296;SDS011;6211;49.124;9.152;2022-10-26T08:14:12;211.30;;;199.60;;
12296;SDS011;6211;49.124;9.152;2022-10-26T08:16:39;137.15;;;129.02;;
12296;SDS011;6211;49.124;9.152;2022-10-26T08:19:06;156.88;;;148.30;;
12296;SDS011;6211;49.124;9.152;2022-10-26T08:21:35;89.28;;;83.57;;
12296;SDS011;6211;49.124;9.152;2022-10-26T08:24:02;132.15;;;124.90;;
12296;SDS011;6211;49.124;9.152;2022-10-26T08:26:29;142.40;;;133.57;;
12296;SDS011;6211;49.124;9.152;2022-10-26T08:28:56;125.72;;;118.18;;
12296;SDS011;6211;49.124;9.152;2022-10-26T08:31:24;188.98;;;177.57;;
12296;SDS011;6211;49.124;9.152;2022-10-26T08:33:51;146.82;;;138.23;;
12296;SDS011;6211;49.124;9.152;2022-10-26T08:36:19;163.68;;;154.77;;
12296;SDS011;6211;49.124;9.152;2022-10-26T08:38:50;174.18;;;163.88;;
12296;SDS011;6211;49.124;9.152;2022-10-26T08:41:18;146.93;;;138.05;;
12296;SDS011;6211;49.124;9.152;2022-10-26T08:43:46;135.05;;;126.80;;
12296;SDS011;6211;49.124;9.152;2022-10-26T08:46:16;187.63;;;176.25;;
12296;SDS011;6211;49.124;9.152;2022-10-26T08:48:46;152.63;;;143.15;;
12296;SDS011;6211;49.124;9.152;2022-10-26T08:51:14;127.22;;;118.93;;
12296;SDS011;6211;49.124;9.152;2022-10-26T08:53:46;73.43;;;68.18;;
12296;SDS011;6211;49.124;9.152;2022-10-26T08:56:17;116.13;;;108.25;;
12296;SDS011;6211;49.124;9.152;2022-10-26T08:58:46;98.78;;;91.32;;
12296;SDS011;6211;49.124;9.152;2022-10-26T09:01:15;70.05;;;65.57;;
12296;SDS011;6211;49.124;9.152;2022-10-26T09:03:42;124.07;;;116.35;;
12296;SDS011;6211;49.124;9.152;2022-10-26T09:06:18;157.18;;;146.93;;
12296;SDS011;6211;49.124;9.152;2022-10-26T09:08:49;102.53;;;95.65;;
12296;SDS011;6211;49.124;9.152;2022-10-26T09:11:24;122.30;;;113.20;;
12296;SDS011;6211;49.124;9.152;2022-10-26T09:13:58;85.18;;;78.70;;
12296;SDS011;6211;49.124;9.152;2022-10-26T09:16:31;173.48;;;161.10;;
12296;SDS011;6211;49.124;9.152;2022-10-26T09:19:05;226.73;;;211.82;;
12296;SDS011;6211;49.124;9.152;2022-10-26T09:21:39;184.82;;;172.13;;
12296;SDS011;6211;49.124;9.152;2022-10-26T09:24:12;200.82;;;186.93;;
12296;SDS011;6211;49.124;9.152;2022-10-26T09:26:42;177.52;;;164.88;;
12296;SDS011;6211;49.124;9.152;2022-10-26T09:29:12;129.00;;;119.95;;
12296;SDS011;6211;49.124;9.152;2022-10-26T09:31:40;195.93;;;182.25;;
12296;SDS011;6211;49.124;9.152;2022-10-26T09:34:11;187.48;;;173.07;;
12296;SDS011;6211;49.124;9.152;2022-10-26T09:36:40;214.18;;;198.07;;
12296;SDS011;6211;49.124;9.152;2022-10-26T09:39:10;185.88;;;172.23;;
12296;SDS011;6211;49.124;9.152;2022-10-26T09:41:39;204.88;;;190.13;;
12296;SDS011;6211;49.124;9.152;2022-10-26T09:44:10;134.80;;;124.30;;
12296;SDS011;6211;49.124;9.152;2022-10-26T09:46:42;144.65;;;133.82;;
12296;SDS011;6211;49.124;9.152;2022-10-26T09:49:10;203.73;;;189.13;;
12296;SDS011;6211;49.124;9.152;2022-10-26T09:51:39;158.60;;;146.90;;
12296;SDS011;6211;49.124;9.152;2022-10-26T09:54:09;184.98;;;172.15;;
12296;SDS011;6211;49.124;9.152;2022-10-26T09:56:39;188.65;;;175.48;;
12296;SDS011;6211;49.124;9.152;2022-10-26T09:59:08;150.60;;;138.05;;
12296;SDS011;6211;49.124;9.152;2022-10-26T10:01:37;152.43;;;141.32;;
12296;SDS011;6211;49.124;9.152;2022-10-26T10:04:09;131.35;;;121.47;;
12296;SDS011;6211;49.124;9.152;2022-10-26T10:06:36;167.70;;;155.70;;
12296;SDS011;6211;49.124;9.152;2022-10-26T10:09:04;225.70;;;209.48;;
12296;SDS011;6211;49.124;9.152;2022-10-26T10:11:38;123.60;;;113.70;;
12296;SDS011;6211;49.124;9.152;2022-10-26T10:14:06;189.55;;;174.65;;
12296;SDS011;6211;49.124;9.152;2022-10-26T10:16:33;213.60;;;197.75;;
12296;SDS011;6211;49.124;9.152;2022-10-26T10:19:02;102.07;;;94.63;;
12296;SDS011;6211;49.124;9.152;2022-10-26T10:21:33;165.15;;;153.15;;
12296;SDS011;6211;49.124;9.152;2022-10-26T10:24:01;150.07;;;139.07;;
12296;SDS011;6211;49.124;9.152;2022-10-26T10:28:55;155.77;;;143.30;;
12296;SDS011;6211;49.124;9.152;2022-10-26T10:31:26;85.07;;;78.38;;
12296;SDS011;6211;49.124;9.152;2022-10-26T10:33:53;59.95;;;55.75;;
12296;SDS011;6211;49.124;9.152;2022-10-26T10:36:22;57.53;;;52.97;;
12296;SDS011;6211;49.124;9.152;2022-10-26T10:38:51;85.93;;;80.05;;
12296;SDS011;6211;49.124;9.152;2022-10-26T10:41:20;93.82;;;86.28;;
12296;SDS011;6211;49.124;9.152;2022-10-26T10:43:51;151.27;;;140.50;;
12296;SDS011;6211;49.124;9.152;2022-10-26T10:46:19;94.78;;;87.72;;
12296;SDS011;6211;49.124;9.152;2022-10-26T10:48:49;103.40;;;96.38;;
12296;SDS011;6211;49.124;9.152;2022-10-26T10:51:18;127.13;;;117.70;;
12296;SDS011;6211;49.124;9.152;2022-10-26T10:53:48;89.80;;;82.88;;
12296;SDS011;6211;49.124;9.152;2022-10-26T10:56:22;131.63;;;122.60;;
12296;SDS011;6211;49.124;9.152;2022-10-26T10:58:56;143.20;;;132.63;;
12296;SDS011;6211;49.124;9.152;2022-10-26T11:01:29;75.53;;;70.00;;
12296;SDS011;6211;49.124;9.152;2022-10-26T11:04:01;88.95;;;82.75;;
12296;SDS011;6211;49.124;9.152;2022-10-26T11:06:31;71.07;;;66.05;;
12296;SDS011;6211;49.124;9.152;2022-10-26T11:09:02;96.03;;;89.78;;
12296;SDS011;6211;49.124;9.152;2022-10-26T11:11:32;76.15;;;71.25;;
12296;SDS011;6211;49.124;9.152;2022-10-26T11:14:01;56.33;;;52.38;;
12296;SDS011;6211;49.124;9.152;2022-10-26T11:16:32;73.97;;;68.18;;
12296;SDS011;6211;49.124;9.152;2022-10-26T11:19:03;73.07;;;68.45;;
12296;SDS011;6211;49.124;9.152;2022-10-26T11:21:33;44.65;;;42.25;;
12296;SDS011;6211;49.124;9.152;2022-10-26T11:24:05;55.13;;;51.97;;
12296;SDS011;6211;49.124;9.152;2022-10-26T11:26:38;29.23;;;27.77;;
12296;SDS011;6211;49.124;9.152;2022-10-26T11:29:09;27.50;;;26.02;;
12296;SDS011;6211;49.124;9.152;2022-10-26T11:31:38;33.67;;;32.15;;
12296;SDS011;6211;49.124;9.152;2022-10-26T11:34:11;33.60;;;31.90;;
12296;SDS011;6211;49.124;9.152;2022-10-26T11:36:39;19.95;;;19.13;;
12296;SDS011;6211;49.124;9.152;2022-10-26T11:39:11;23.33;;;22.42;;
12296;SDS011;6211;49.124;9.152;2022-10-26T11:41:42;20.08;;;19.08;;
12296;SDS011;6211;49.124;9.152;2022-10-26T11:44:14;19.63;;;18.67;;
12296;SDS011;6211;49.124;9.152;2022-10-26T11:46:44;19.30;;;18.48;;
12296;SDS011;6211;49.124;9.152;2022-10-26T11:49:13;26.38;;;24.83;;
12296;SDS011;6211;49.124;9.152;2022-10-26T11:51:42;20.20;;;19.40;;
12296;SDS011;6211;49.124;9.152;2022-10-26T11:54:14;17.33;;;16.52;;
12296;SDS011;6211;49.124;9.152;2022-10-26T11:56:43;17.20;;;16.50;;
12296;SDS011;6211;49.124;9.152;2022-10-26T11:59:13;18.63;;;17.77;;
12296;SDS011;6211;49.124;9.152;2022-10-26T12:01:42;20.10;;;19.23;;
12296;SDS011;6211;49.124;9.152;2022-10-26T12:04:10;21.88;;;20.88;;
12296;SDS011;6211;49.124;9.152;2022-10-26T12:06:37;19.60;;;18.58;;
12296;SDS011;6211;49.124;9.152;2022-10-26T12:09:05;31.40;;;30.05;;
12296;SDS011;6211;49.124;9.152;2022-10-26T12:11:37;25.35;;;24.05;;
12296;SDS011;6211;49.124;9.152;2022-10-26T12:14:06;26.45;;;25.13;;
12296;SDS011;6211;49.124;9.152;2022-10-26T12:16:41;24.48;;;23.48;;
12296;SDS011;6211;49.124;9.152;2022-10-26T12:19:11;29.25;;;28.05;;
12296;SDS011;6211;49.124;9.152;2022-10-26T12:21:40;26.13;;;24.88;;
12296;SDS011;6211;49.124;9.152;2022-10-26T12:24:23;23.48;;;22.38;;
12296;SDS011;6211;49.124;9.152;2022-10-26T12:26:53;24.05;;;23.08;;
12296;SDS011;6211;49.124;9.152;2022-10-26T12:29:31;28.00;;;26.85;;
12296;SDS011;6211;49.124;9.152;2022-10-26T12:32:00;23.10;;;22.10;;
12296;SDS011;6211;49.124;9.152;2022-10-26T12:37:21;24.25;;;23.15;;
12296;SDS011;6211;49.124;9.152;2022-10-26T12:39:48;25.35;;;24.35;;
12296;SDS011;6211;49.124;9.152;2022-10-26T12:42:29;20.25;;;19.35;;
12296;SDS011;6211;49.124;9.152;2022-10-26T12:45:00;20.67;;;19.65;;
12296;SDS011;6211;49.124;9.152;2022-10-26T12:50:21;15.13;;;14.40;;
12296;SDS011;6211;49.124;9.152;2022-10-26T12:52:50;21.48;;;20.17;;
12296;SDS011;6211;49.124;9.152;2022-10-26T12:58:26;15.82;;;14.73;;
12296;SDS011;6211;49.124;9.152;2022-10-26T13:01:07;14.20;;;13.30;;
12296;SDS011;6211;49.124;9.152;2022-10-26T13:03:38;15.98;;;15.30;;
12296;SDS011;6211;49.124;9.152;2022-10-26T13:06:22;21.45;;;20.25;;
12296;SDS011;6211;49.124;9.152;2022-10-26T13:08:54;15.93;;;15.23;;
12296;SDS011;6211;49.124;9.152;2022-10-26T13:11:24;15.57;;;14.88;;
12296;SDS011;6211;49.124;9.152;2022-10-26T13:13:56;20.48;;;19.58;;
12296;SDS011;6211;49.124;9.152;2022-10-26T13:16:25;16.98;;;16.17;;
12296;SDS011;6211;49.124;9.152;2022-10-26T13:18:52;14.60;;;13.90;;
12296;SDS011;6211;49.124;9.152;2022-10-26T13:21:21;21.67;;;20.77;;
12296;SDS011;6211;49.124;9.152;2022-10-26T13:23:54;15.40;;;14.70;;
12296;SDS011;6211;49.124;9.152;2022-10-26T13:26:26;23.05;;;22.00;;
12296;SDS011;6211;49.124;9.152;2022-10-26T13:28:54;19.90;;;19.10;;
12296;SDS011;6211;49.124;9.152;2022-10-26T13:34:11;21.98;;;20.98;;
12296;SDS011;6211;49.124;9.152;2022-10-26T13:36:41;23.13;;;22.23;;
12296;SDS011;6211;49.124;9.152;2022-10-26T13:39:11;27.13;;;25.73;;
12296;SDS011;6211;49.124;9.152;2022-10-26T13:41:41;24.98;;;23.98;;
12296;SDS011;6211;49.124;9.152;2022-10-26T13:44:11;23.60;;;22.27;;
12296;SDS011;6211;49.124;9.152;2022-10-26T13:46:40;25.52;;;24.17;;
12296;SDS011;6211;49.124;9.152;2022-10-26T13:49:11;22.65;;;21.67;;
12296;SDS011;6211;49.124;9.152;2022-10-26T13:51:43;23.95;;;22.85;;
12296;SDS011;6211;49.124;9.152;2022-10-26T13:54:18;26.65;;;25.42;;
12296;SDS011;6211;49.124;9.152;2022-10-26T13:56:51;24.15;;;22.95;;
12296;SDS011;6211;49.124;9.152;2022-10-26T13:59:22;1.70;;;1.52;;
12296;SDS011;6211;49.124;9.152;2022-10-26T14:02:04;2.83;;;2.28;;
12296;SDS011;6211;49.124;9.152;2022-10-26T14:04:31;2.97;;;1.38;;
12296;SDS011;6211;49.124;9.152;2022-10-26T14:06:59;1.55;;;1.45;;
12296;SDS011;6211;49.124;9.152;2022-10-26T14:09:27;2.85;;;2.40;;
12296;SDS011;6211;49.124;9.152;2022-10-26T14:11:55;1.92;;;1.73;;
12296;SDS011;6211;49.124;9.152;2022-10-26T14:14:24;1.48;;;1.38;;
12296;SDS011;6211;49.124;9.152;2022-10-26T14:16:52;1.67;;;1.58;;
12296;SDS011;6211;49.124;9.152;2022-10-26T14:19:21;2.05;;;1.95;;
12296;SDS011;6211;49.124;9.152;2022-10-26T14:21:49;3.90;;;1.80;;
12296;SDS011;6211;49.124;9.152;2022-10-26T14:24:20;2.70;;;1.58;;
12296;SDS011;6211;49.124;9.152;2022-10-26T14:26:48;2.17;;;1.90;;
12296;SDS011;6211;49.124;9.152;2022-10-26T14:29:16;5.47;;;2.03;;
12296;SDS011;6211;49.124;9.152;2022-10-26T14:31:44;2.10;;;1.25;;
12296;SDS011;6211;49.124;9.152;2022-10-26T14:34:12;2.05;;;1.80;;
12296;SDS011;6211;49.124;9.152;2022-10-26T14:36:40;2.50;;;1.40;;
12296;SDS011;6211;49.124;9.152;2022-10-26T14:39:13;2.80;;;1.55;;
12296;SDS011;6211;49.124;9.152;2022-10-26T14:41:43;1.73;;;1.60;;
12296;SDS011;6211;49.124;9.152;2022-10-26T14:44:13;4.18;;;1.67;;
12296;SDS011;6211;49.124;9.152;2022-10-26T14:46:42;3.15;;;1.58;;
12296;SDS011;6211;49.124;9.152;2022-10-26T14:49:13;2.67;;;1.27;;
12296;SDS011;6211;49.124;9.152;2022-10-26T14:51:43;2.65;;;1.83;;
12296;SDS011;6211;49.124;9.152;2022-10-26T14:54:17;4.97;;;2.03;;
12296;SDS011;6211;49.124;9.152;2022-10-26T14:56:46;3.90;;;1.67;;
12296;SDS011;6211;49.124;9.152;2022-10-26T14:59:18;2.45;;;2.15;;
12296;SDS011;6211;49.124;9.152;2022-10-26T15:01:46;1.45;;;1.35;;
12296;SDS011;6211;49.124;9.152;2022-10-26T15:04:25;3.28;;;1.60;;